Lahaina, HI

11:15 AM HST on December 20, 2014 (GMT -1000)
puamana | Change Station
CLOSE
Current Station
Personal Weather Station
Location: Lahaina, HI
Elevation: 36 ft
Nearby Weather Stations

Elev 36 ft 20.86 °N, 156.67 °W | Updated 5 minutes ago

Partly Cloudy
Partly Cloudy
78.9 °F
Feels Like 81 °F
N
3.0
Wind Variable Wind from WNW
Gusts 10.0 mph

Today
High -- | Low -- °F
--% Chance of Precip.
Yesterday
High -- | Low -- °F
Precip. -- in
6:58 AM 5:50 PM
Waning Crescent, 2% visible
Pressure 30.06 in
Visibility 15.0 miles
Clouds Few 4500 ft
Heat Index 81 °F
Dew Point 65 °F
Humidity 62%
Rainfall 0.00 in
Snow Depth Not available.
UV 5 out of 12
Pollen Not available.
Air Quality Not available.
Flu Activity Not available.
METAR PHJH 202045Z 00000KT 15SM FEW045 27/17 A3006

More Conditions Fewer Conditions

Pressure 30.06 in
Visibility 15.0 miles
Clouds Few 4500 ft
Heat Index 81 °F
Dew Point 65 °F
Humidity 62%
Rainfall 0.00 in
Snow Depth Not available.
UV 5 out of 12
Pollen Not available.
Air Quality Not available.
Flu Activity Not available.
METAR PHJH 202045Z 00000KT 15SM FEW045 27/17 A3006

More Conditions Fewer Conditions

10-Day Weather Forecast

Almanac

Astronomy

Dec. 20, 2014 Rise Set
Actual Time
Civil Twilight
Nautical Twilight
Astronomical Twilight
Moon
Length of Visible Light
Length of Day
Tomorrow will be .
, % of the Moon is Illuminated

Today's Extremes

State Highs State Lows

Community

WunderPhotos

Upload Photos

1,779,275 photos uploaded!

WunderBlogs® & News

Nearby

Air Quality

  Air Quality AQ Index Pollutant
Not available.

Snow Depth

Station Depth Elevation

Earthquake Activity

City Distance Mag. Time & Date
Minimum magnitude displayed is 2.5.

Coastal Water Temperatures

Place Temperature

Nearby Weather Stations